Time;durP1;ratioP1;P1;durP2;ratioP2;P2;SDS_P1;SDS_P2;PMS_P1;PMS_P2;Temp;Humidity;BMP_temperature;BMP_pressure;BME280_temperature;BME280_humidity;BME280_pressure;Samples;Min_cycle;Max_cycle;Signal;HPM_P1;HPM_P2
2023/08/28 00:04:20;;;;;;;18.98;18.08;;;;;;;-141.02;70.31;42384.81;5073576;28;20348;-59
2023/08/28 00:06:47;;;;;;;19.17;18.27;;;;;;;-141.02;70.51;42375.22;5120508;27;20575;-67
2023/08/28 00:09:13;;;;;;;19.30;18.38;;;;;;;-141.02;70.69;42382.91;5136132;27;20197;-66
2023/08/28 00:15:02;;;;;;;19.02;18.13;;;;;;;-141.02;70.71;42363.72;5136088;27;20184;-66
2023/08/28 00:17:31;;;;;;;19.17;18.27;;;;;;;-141.02;70.89;42379.06;5136349;27;20273;-62
2023/08/28 00:19:58;;;;;;;19.08;18.17;;;;;;;-141.02;70.91;42367.56;5135866;27;20749;-64
2023/08/28 00:28:47;;;;;;;19.08;18.17;;;;;;;-141.02;71.03;42375.22;5113304;28;20206;-68
2023/08/28 00:31:14;;;;;;;19.35;18.45;;;;;;;-141.02;71.24;42398.25;5113072;28;20242;-58
2023/08/28 00:33:43;;;;;;;19.27;18.38;;;;;;;-141.02;71.49;42379.06;5112618;28;20193;-67
2023/08/28 00:36:10;;;;;;;19.00;18.10;;;;;;;-141.02;71.61;42390.59;5113025;28;20239;-67
2023/08/28 00:38:37;;;;;;;19.00;18.10;;;;;;;-141.02;71.67;42386.75;5112945;28;20197;-68
2023/08/28 00:41:04;;;;;;;19.23;18.33;;;;;;;-141.02;71.69;42386.75;5112902;28;20235;-67
2023/08/28 00:43:31;;;;;;;19.10;18.20;;;;;;;-141.02;71.77;42405.94;5112831;28;20197;-62
2023/08/28 00:45:58;;;;;;;19.30;18.40;;;;;;;-141.02;71.80;42405.94;5112827;28;20190;-67
2023/08/28 00:48:26;;;;;;;18.95;18.05;;;;;;;-141.02;72.08;42421.28;5112749;28;20193;-63
2023/08/28 00:50:54;;;;;;;19.25;18.35;;;;;;;-141.02;72.08;42386.75;5112733;28;20278;-67
2023/08/28 00:53:27;;;;;;;19.25;18.35;;;;;;;-141.02;72.28;42405.94;5112675;28;20228;-66
2023/08/28 00:55:54;;;;;;;19.10;18.20;;;;;;;-141.02;72.58;42413.63;5112562;28;20283;-58
2023/08/28 00:58:21;;;;;;;19.08;18.17;;;;;;;-141.02;72.68;42407.84;5112558;28;20197;-66
2023/08/28 01:00:48;;;;;;;19.02;18.13;;;;;;;-141.02;73.00;42413.63;5112500;28;20189;-67
2023/08/28 01:03:15;;;;;;;18.83;17.92;;;;;;;-141.02;72.99;42394.41;5129711;27;20237;-67
2023/08/28 01:06:04;;;;;;;18.88;17.98;;;;;;;-141.02;73.04;42417.47;5134855;27;20267;-61
2023/08/28 01:08:43;;;;;;;19.25;18.35;;;;;;;-141.02;73.47;42413.63;5135042;27;20184;-66
2023/08/28 01:11:19;;;;;;;19.02;18.13;;;;;;;-141.02;73.51;42430.91;5135081;27;20191;-68
2023/08/28 01:14:13;;;;;;;18.88;17.98;;;;;;;-141.02;73.91;42425.13;5134918;27;20281;-67
2023/08/28 01:16:43;;;;;;;19.13;18.23;;;;;;;-141.02;74.17;42432.81;5135156;27;20192;-67
2023/08/28 01:19:31;;;;;;;18.98;18.08;;;;;;;-141.02;74.70;42417.47;5134818;27;20231;-67
2023/08/28 01:22:09;;;;;;;18.92;18.02;;;;;;;-141.02;74.92;42413.63;5135105;27;20193;-68
2023/08/28 01:24:38;;;;;;;19.02;18.13;;;;;;;-141.02;75.28;42409.78;5134968;27;20212;-67
2023/08/28 01:27:07;;;;;;;19.10;18.20;;;;;;;-141.02;75.60;42432.81;5134879;27;20192;-59
2023/08/28 01:29:34;;;;;;;19.10;18.20;;;;;;;-141.02;76.15;42421.28;5134545;27;20199;-67
2023/08/28 01:32:02;;;;;;;18.98;18.08;;;;;;;-141.02;77.17;42413.63;5134853;27;20643;-62
2023/08/28 01:34:29;;;;;;;18.88;17.98;;;;;;;-141.02;78.28;42413.63;5134742;27;20192;-68
2023/08/28 01:37:03;;;;;;;18.23;17.42;;;;;;;-141.02;78.81;42382.91;5134732;27;20262;-67
2023/08/28 01:39:37;;;;;;;18.75;17.85;;;;;;;-141.02;78.56;42405.94;5134722;27;20184;-67
2023/08/28 01:42:07;;;;;;;19.00;18.10;;;;;;;-141.02;78.39;42394.41;5134645;27;20188;-67
2023/08/28 01:44:36;;;;;;;18.90;18.00;;;;;;;-141.02;78.30;42394.41;5134551;27;20220;-67
2023/08/28 01:47:03;;;;;;;19.02;18.13;;;;;;;-141.02;78.40;42386.75;5133640;27;20192;-61
2023/08/28 01:49:30;;;;;;;18.80;17.90;;;;;;;-141.02;79.07;42409.78;5134091;27;20235;-68
2023/08/28 01:51:57;;;;;;;18.88;17.98;;;;;;;-141.02;80.14;42409.78;5134077;27;20188;-67
2023/08/28 01:54:25;;;;;;;18.55;17.65;;;;;;;-141.02;82.32;42386.75;5134068;27;20680;-67
2023/08/28 01:56:52;;;;;;;18.20;17.40;;;;;;;-141.02;84.05;42348.34;5134207;27;20299;-67
2023/08/28 01:59:20;;;;;;;18.45;17.55;;;;;;;-141.02;86.29;42321.47;5134293;27;20224;-68
2023/08/28 02:01:47;;;;;;;18.33;17.42;;;;;;;-141.02;88.23;42242.78;5134169;27;20292;-68
2023/08/28 02:04:14;;;;;;;18.08;17.27;;;;;;;-141.02;90.16;42144.91;5134152;27;20249;-68
2023/08/28 02:06:41;;;;;;;17.77;16.98;;;;;;;-141.02;90.81;42121.88;5133805;27;20253;-58
2023/08/28 02:09:08;;;;;;;17.77;16.98;;;;;;;-141.02;93.12;42045.09;5134110;27;20291;-68
2023/08/28 02:11:36;;;;;;;18.00;17.20;;;;;;;-141.02;94.30;41974.06;5133583;27;20263;-67
2023/08/28 02:14:03;;;;;;;18.00;17.20;;;;;;;-141.02;95.82;41899.22;5134030;27;20625;-67
2023/08/28 02:16:32;;;;;;;17.67;16.88;;;;;;;-141.02;97.08;41816.72;5133665;27;20239;-67
2023/08/28 02:18:59;;;;;;;17.10;16.30;;;;;;;-141.02;96.26;41776.41;5133585;27;20196;-66
2023/08/28 02:21:25;;;;;;;17.80;17.00;;;;;;;-141.02;96.08;41772.56;5133904;27;20228;-68
2023/08/28 02:23:52;;;;;;;17.70;16.90;;;;;;;-141.02;96.03;41764.88;5133516;27;20223;-64
2023/08/28 02:26:19;;;;;;;17.60;16.80;;;;;;;-141.02;95.13;41778.31;5133367;27;20646;-68
2023/08/28 02:28:46;;;;;;;17.58;16.77;;;;;;;-141.02;96.10;41726.50;5133722;27;20548;-67
2023/08/28 02:31:13;;;;;;;17.70;16.90;;;;;;;-141.02;96.70;41715.00;5133756;27;20220;-67
2023/08/28 02:33:42;;;;;;;17.30;16.60;;;;;;;-141.02;97.22;41715.00;5133348;27;20550;-68
2023/08/28 02:36:09;;;;;;;17.30;16.60;;;;;;;-141.02;98.10;41676.59;5133270;27;20196;-59
2023/08/28 02:38:36;;;;;;;17.40;16.70;;;;;;;-141.02;99.30;41611.34;5133254;27;20214;-68
2023/08/28 02:41:04;;;;;;;17.70;16.90;;;;;;;-141.02;100.00;41544.19;5133231;27;20557;-66
2023/08/28 02:43:31;;;;;;;17.52;16.73;;;;;;;-141.02;100.00;41461.69;5133181;27;20199;-67
2023/08/28 02:45:58;;;;;;;17.17;16.48;;;;;;;-141.02;100.00;41386.84;5133148;27;20234;-67
2023/08/28 02:48:25;;;;;;;16.98;16.27;;;;;;;-141.02;100.00;41338.88;5133393;27;20192;-65
2023/08/28 02:50:53;;;;;;;16.75;16.05;;;;;;;-141.02;100.00;41273.63;5133120;27;20681;-68
2023/08/28 02:53:20;;;;;;;16.58;15.88;;;;;;;-141.02;100.00;41194.94;5133342;27;20220;-68
2023/08/28 02:56:22;;;;;;;16.08;15.38;;;;;;;-141.02;100.00;41158.50;5133004;27;20576;-67
2023/08/28 02:58:49;;;;;;;16.50;15.80;;;;;;;-141.02;100.00;41043.38;5133208;27;20188;-67
2023/08/28 03:01:24;;;;;;;16.58;15.88;;;;;;;-141.02;100.00;40932.09;5133050;27;20192;-67
2023/08/28 03:03:51;;;;;;;16.00;15.40;;;;;;;-141.02;100.00;40901.38;5132883;27;20679;-65
2023/08/28 03:06:20;;;;;;;15.80;15.20;;;;;;;-141.02;100.00;40840.00;5132879;28;20724;-67
2023/08/28 03:08:47;;;;;;;14.90;14.40;;;;;;;-141.02;100.00;40816.97;5133188;28;20192;-66
2023/08/28 03:11:14;;;;;;;15.43;14.82;;;;;;;-141.02;100.00;40857.25;5132796;27;20235;-67
2023/08/28 03:13:41;;;;;;;16.08;15.48;;;;;;;-141.02;100.00;40840.00;5133273;27;20188;-65
2023/08/28 03:16:12;;;;;;;15.45;14.85;;;;;;;-141.02;100.00;40857.25;5133151;28;20192;-67
2023/08/28 03:18:40;;;;;;;14.98;14.43;;;;;;;-141.02;100.00;40843.81;5133146;28;20200;-67
2023/08/28 03:21:07;;;;;;;15.90;15.30;;;;;;;-141.02;100.00;40843.81;5132779;27;20227;-67
2023/08/28 03:23:35;;;;;;;16.15;15.55;;;;;;;-141.02;100.00;40843.81;5132788;28;20750;-67
2023/08/28 03:26:02;;;;;;;15.98;15.38;;;;;;;-141.02;100.00;40895.63;5132859;28;20260;-59
2023/08/28 03:28:29;;;;;;;15.60;15.00;;;;;;;-141.02;100.00;40920.56;5133117;28;20193;-64
2023/08/28 03:30:57;;;;;;;15.68;15.07;;;;;;;-141.02;100.00;40907.16;5133054;28;20227;-67
2023/08/28 03:33:24;;;;;;;15.50;14.90;;;;;;;-141.02;100.00;40943.59;5132981;27;20196;-58
2023/08/28 03:35:51;;;;;;;15.20;14.60;;;;;;;-141.02;100.00;40989.66;5133030;27;20621;-67
2023/08/28 03:38:19;;;;;;;15.60;14.95;;;;;;;-141.02;100.00;41077.91;5132579;28;20197;-66
2023/08/28 03:40:48;;;;;;;15.80;15.10;;;;;;;-141.02;100.00;41137.38;5132964;28;20279;-58
2023/08/28 03:43:15;;;;;;;15.93;15.23;;;;;;;-141.02;100.00;41204.53;5132590;27;20192;-66
2023/08/28 03:45:42;;;;;;;16.10;15.40;;;;;;;-141.02;100.00;41241.00;5132799;27;20284;-67
2023/08/28 03:48:09;;;;;;;15.95;15.25;;;;;;;-141.02;100.00;41277.47;5132897;28;20243;-67
2023/08/28 03:50:36;;;;;;;15.90;15.20;;;;;;;-141.02;100.00;41354.22;5132795;28;20196;-58
2023/08/28 03:53:03;;;;;;;16.20;15.50;;;;;;;-141.02;100.00;41350.38;5132864;27;20193;-65
2023/08/28 03:55:30;;;;;;;15.70;15.10;;;;;;;-141.02;100.00;41427.13;5132842;27;20228;-67
2023/08/28 03:57:58;;;;;;;15.73;15.23;;;;;;;-141.02;100.00;41434.81;5132766;28;20200;-67
2023/08/28 04:00:25;;;;;;;14.65;14.15;;;;;;;-141.02;100.00;41482.78;5132729;27;20192;-67
2023/08/28 04:02:53;;;;;;;15.57;15.07;;;;;;;-141.02;100.00;41513.50;5132699;28;20224;-63
2023/08/28 04:05:21;;;;;;;15.52;15.02;;;;;;;-141.02;100.00;41500.06;5132295;28;20256;-67
2023/08/28 04:07:49;;;;;;;16.15;15.55;;;;;;;-141.02;100.00;41549.94;5133227;28;20234;-67
2023/08/28 04:10:16;;;;;;;16.13;15.52;;;;;;;-141.02;100.00;41580.66;5135499;27;20267;-67
2023/08/28 04:12:44;;;;;;;16.23;15.63;;;;;;;-141.02;100.00;41810.94;5136003;27;20681;-58
2023/08/28 04:15:12;;;;;;;16.10;15.50;;;;;;;-141.02;100.00;41947.22;5136030;27;20722;-64
2023/08/28 04:17:39;;;;;;;16.48;15.88;;;;;;;-141.02;99.53;42014.38;5135995;27;20279;-64
2023/08/28 04:20:12;;;;;;;17.10;16.45;;;;;;;-141.02;97.44;42043.19;5136187;27;20192;-64
2023/08/28 04:22:40;;;;;;;17.45;16.75;;;;;;;-141.02;94.67;42091.16;5135965;27;20284;-67
2023/08/28 04:25:08;;;;;;;17.40;16.70;;;;;;;-141.02;93.09;42146.81;5135699;27;20647;-67
2023/08/28 04:27:35;;;;;;;17.88;17.17;;;;;;;-141.02;91.59;42190.97;5135778;27;20283;-64
2023/08/28 04:30:02;;;;;;;16.90;16.30;;;;;;;-141.02;90.30;42190.97;5135739;27;20239;-67
2023/08/28 04:32:31;;;;;;;17.98;17.27;;;;;;;-141.02;90.40;42256.22;5135728;27;20196;-67
2023/08/28 04:34:58;;;;;;;18.27;17.58;;;;;;;-141.02;89.02;42290.78;5135884;27;20201;-67
2023/08/28 04:37:26;;;;;;;18.95;18.15;;;;;;;-141.02;88.71;42294.63;5135536;27;20250;-58
2023/08/28 04:39:53;;;;;;;18.80;18.10;;;;;;;-141.02;87.56;42336.84;5135556;27;20273;-67
2023/08/28 04:42:21;;;;;;;19.10;18.30;;;;;;;-141.02;86.83;42323.41;5135780;27;20250;-60
2023/08/28 04:44:48;;;;;;;18.83;18.08;;;;;;;-141.02;85.18;42359.88;5135777;27;20228;-66
2023/08/28 04:47:15;;;;;;;19.27;18.48;;;;;;;-141.02;85.04;42402.09;5135427;27;20640;-58
2023/08/28 04:49:43;;;;;;;18.48;17.67;;;;;;;-141.02;83.74;42417.47;5135666;27;20271;-67
2023/08/28 04:52:10;;;;;;;18.40;17.60;;;;;;;-141.02;83.76;42402.09;5135609;27;20228;-67
2023/08/28 04:54:37;;;;;;;18.98;18.17;;;;;;;-141.02;82.05;42428.97;5135610;27;20637;-67
2023/08/28 04:57:04;;;;;;;19.30;18.50;;;;;;;-141.02;82.20;42421.28;5135133;27;20318;-65
2023/08/28 04:59:31;;;;;;;18.90;18.10;;;;;;;-141.02;81.44;42386.75;5135144;27;20255;-58
2023/08/28 05:01:58;;;;;;;19.45;18.65;;;;;;;-141.02;81.15;42432.81;5135453;27;20189;-58
2023/08/28 05:04:25;;;;;;;18.40;17.70;;;;;;;-141.02;80.09;42407.84;5135390;27;20245;-67
2023/08/28 05:06:54;;;;;;;18.75;18.05;;;;;;;-141.02;81.00;42386.75;5135067;27;20235;-64
2023/08/28 05:09:21;;;;;;;18.92;18.13;;;;;;;-141.02;81.41;42359.88;5135291;27;20227;-67
2023/08/28 05:11:48;;;;;;;19.30;18.50;;;;;;;-141.02;83.51;42329.16;5135529;27;20650;-67
2023/08/28 05:14:15;;;;;;;19.58;18.77;;;;;;;-141.02;83.76;42342.59;5135142;27;20220;-67
2023/08/28 05:16:42;;;;;;;19.17;18.38;;;;;;;-141.02;84.24;42375.22;5135075;27;20224;-67
2023/08/28 05:19:09;;;;;;;18.95;18.15;;;;;;;-141.02;83.78;42329.16;5135108;27;20268;-66
2023/08/28 05:21:36;;;;;;;18.92;18.13;;;;;;;-141.02;83.21;42369.47;5134759;27;20223;-67
2023/08/28 05:24:05;;;;;;;18.75;18.05;;;;;;;-141.02;83.44;42392.50;5134933;27;20192;-59
2023/08/28 05:26:32;;;;;;;18.48;17.77;;;;;;;-141.02;84.22;42334.91;5134963;27;20241;-60
2023/08/28 05:28:58;;;;;;;18.58;17.88;;;;;;;-141.02;84.72;42252.38;5134931;27;20613;-66
2023/08/28 05:31:25;;;;;;;18.88;18.17;;;;;;;-141.02;84.83;42244.72;5134864;27;20224;-67
2023/08/28 05:33:52;;;;;;;19.20;18.45;;;;;;;-141.02;85.01;42225.50;5134489;27;20192;-63
2023/08/28 05:36:20;;;;;;;18.65;17.95;;;;;;;-141.02;85.88;42290.78;5134636;27;20230;-67
2023/08/28 05:38:47;;;;;;;18.80;18.10;;;;;;;-141.02;85.67;42308.03;5134429;27;20688;-59
2023/08/28 05:41:15;;;;;;;18.13;17.42;;;;;;;-141.02;85.99;42365.63;5134634;27;20635;-67
2023/08/28 05:43:42;;;;;;;18.15;17.45;;;;;;;-141.02;86.14;42392.50;5134260;27;20733;-67
2023/08/28 05:46:09;;;;;;;18.00;17.40;;;;;;;-141.02;86.63;42348.34;5134227;27;20224;-67
2023/08/28 05:48:36;;;;;;;18.27;17.58;;;;;;;-141.02;86.54;42375.22;5134488;27;20195;-67
2023/08/28 05:51:03;;;;;;;18.63;17.92;;;;;;;-141.02;86.18;42356.03;5134135;27;20227;-67
2023/08/28 05:53:30;;;;;;;18.42;17.73;;;;;;;-141.02;85.59;42344.53;5134360;27;20196;-67
2023/08/28 05:55:57;;;;;;;18.20;17.50;;;;;;;-141.02;84.46;42329.16;5134328;27;20234;-67
2023/08/28 05:58:26;;;;;;;18.63;17.92;;;;;;;-141.02;83.50;42398.25;5134125;27;20196;-67
2023/08/28 06:00:53;;;;;;;18.77;18.08;;;;;;;-141.02;81.85;42478.88;5133947;27;20228;-67
2023/08/28 06:03:20;;;;;;;17.80;17.20;;;;;;;-141.02;81.77;42490.41;5134248;27;20188;-67
2023/08/28 06:05:47;;;;;;;18.38;17.67;;;;;;;-141.02;80.98;42500.00;5133823;27;20287;-60
2023/08/28 06:08:14;;;;;;;18.35;17.65;;;;;;;-141.02;80.76;42498.06;5134235;27;20197;-67
2023/08/28 06:10:42;;;;;;;18.35;17.65;;;;;;;-141.02;81.25;42469.28;5133800;27;20249;-67
2023/08/28 06:13:09;;;;;;;18.13;17.42;;;;;;;-141.02;79.72;42428.97;5133603;27;20654;-62
2023/08/28 06:15:37;;;;;;;18.48;17.77;;;;;;;-141.02;79.50;42459.69;5133581;27;20220;-68
2023/08/28 06:18:05;;;;;;;18.77;18.08;;;;;;;-141.02;78.86;42459.69;5133678;27;20204;-67
2023/08/28 06:20:34;;;;;;;18.23;17.52;;;;;;;-141.02;78.51;42494.25;5133621;27;20229;-67
2023/08/28 06:23:01;;;;;;;18.77;18.08;;;;;;;-141.02;77.32;42475.03;5133580;27;20278;-67
2023/08/28 06:25:28;;;;;;;18.60;17.90;;;;;;;-141.02;76.63;42507.69;5133504;27;20669;-67
2023/08/28 06:27:55;;;;;;;18.67;17.98;;;;;;;-141.02;76.09;42467.38;5133819;27;20193;-67
2023/08/28 06:30:22;;;;;;;19.25;18.55;;;;;;;-141.02;75.38;42463.53;5133744;27;20196;-67
2023/08/28 06:32:51;;;;;;;19.38;18.58;;;;;;;-141.02;76.37;42471.19;5133039;27;20204;-66
2023/08/28 06:35:18;;;;;;;19.17;18.48;;;;;;;-141.02;75.36;42459.69;5133621;27;20199;-67
2023/08/28 06:37:45;;;;;;;19.52;18.73;;;;;;;-141.02;76.16;42440.50;5133326;27;20263;-66
2023/08/28 06:40:12;;;;;;;18.88;18.17;;;;;;;-141.02;75.67;42363.72;5133261;27;20189;-67
2023/08/28 06:42:39;;;;;;;19.02;18.33;;;;;;;-141.02;75.55;42386.75;5133310;27;20193;-67
2023/08/28 06:45:07;;;;;;;18.88;18.17;;;;;;;-141.02;75.01;42382.91;5133198;27;20283;-67
2023/08/28 06:47:34;;;;;;;19.05;18.35;;;;;;;-141.02;75.81;42369.47;5133509;27;20192;-67
2023/08/28 06:50:02;;;;;;;19.17;18.48;;;;;;;-141.02;74.48;42390.59;5133503;27;20192;-67
2023/08/28 06:52:29;;;;;;;19.40;18.63;;;;;;;-141.02;73.31;42334.91;5133104;27;20224;-67
2023/08/28 06:54:56;;;;;;;19.00;18.30;;;;;;;-141.02;73.36;42352.19;5133038;27;20756;-67
2023/08/28 06:57:23;;;;;;;19.10;18.30;;;;;;;-141.02;72.62;42390.59;5133313;27;20311;-66
2023/08/28 06:59:50;;;;;;;19.20;18.40;;;;;;;-141.02;72.53;42417.47;5132995;27;20228;-67
2023/08/28 07:02:17;;;;;;;19.33;18.52;;;;;;;-141.02;71.84;42428.97;5133043;27;20279;-68
2023/08/28 07:04:44;;;;;;;19.83;19.02;;;;;;;-141.02;71.12;42425.13;5133291;27;20241;-67
2023/08/28 07:07:16;;;;;;;18.35;17.65;;;;;;;-141.02;70.42;42475.03;5133259;28;20250;-67
2023/08/28 07:09:43;;;;;;;18.95;18.15;;;;;;;-141.02;68.97;42490.41;5133242;27;20195;-60
2023/08/28 07:12:10;;;;;;;19.40;18.60;;;;;;;-141.02;69.04;42551.81;5132713;28;20585;-68
2023/08/28 07:14:37;;;;;;;17.80;17.10;;;;;;;-141.02;68.19;42574.88;5132918;28;20192;-59
2023/08/28 07:17:04;;;;;;;18.83;18.02;;;;;;;-141.02;67.67;42594.06;5132770;28;20603;-68
2023/08/28 07:19:31;;;;;;;18.75;17.95;;;;;;;-141.02;67.35;42628.63;5132811;28;20662;-68
2023/08/28 07:22:00;;;;;;;19.38;18.48;;;;;;;-141.02;66.57;42642.03;5133070;28;20199;-65
2023/08/28 07:24:28;;;;;;;19.48;18.58;;;;;;;-141.02;66.31;42649.72;5132750;28;20681;-67
2023/08/28 07:26:55;;;;;;;19.58;18.67;;;;;;;-141.02;66.21;42663.16;5133066;27;20235;-58
2023/08/28 07:29:22;;;;;;;18.88;18.02;;;;;;;-141.02;66.08;42701.56;5133058;28;20207;-59
2023/08/28 07:31:49;;;;;;;19.02;18.13;;;;;;;-141.02;64.02;42736.13;5132800;27;20226;-58
2023/08/28 07:34:16;;;;;;;18.30;17.50;;;;;;;-141.02;64.37;42739.94;5132987;27;20614;-59
2023/08/28 07:36:44;;;;;;;19.08;18.17;;;;;;;-141.02;63.90;42799.47;5132919;28;20224;-68
2023/08/28 07:39:11;;;;;;;18.98;18.08;;;;;;;-141.02;64.07;42810.97;5133369;27;20280;-59
2023/08/28 07:41:40;;;;;;;19.08;18.17;;;;;;;-141.02;64.59;42857.06;5132708;27;20192;-67
2023/08/28 07:44:07;;;;;;;18.58;17.67;;;;;;;-141.02;64.30;42855.13;5133956;27;20231;-66
2023/08/28 07:46:34;;;;;;;18.83;17.92;;;;;;;-141.02;63.04;42880.09;5136564;27;20192;-62
2023/08/28 07:49:01;;;;;;;18.77;17.88;;;;;;;-141.02;62.33;42899.28;5136848;27;20726;-68
2023/08/28 07:51:28;;;;;;;19.13;18.23;;;;;;;-141.02;61.94;42914.66;5136797;27;20203;-65
2023/08/28 07:53:55;;;;;;;18.98;18.08;;;;;;;-141.02;62.03;42928.09;5137618;27;20283;-65
2023/08/28 07:56:22;;;;;;;18.73;17.83;;;;;;;-141.02;60.85;42912.72;5136703;27;20311;-68
2023/08/28 07:58:51;;;;;;;19.10;18.20;;;;;;;-141.02;60.01;42939.59;5136449;27;20231;-67
2023/08/28 08:01:18;;;;;;;19.17;18.27;;;;;;;-141.02;59.42;42949.19;5136618;27;20199;-68
2023/08/28 08:03:45;;;;;;;32.67;31.08;;;;;;;-141.02;59.20;42978.00;5136252;27;20575;-63
2023/08/28 08:06:12;;;;;;;38.03;36.22;;;;;;;-141.02;57.81;42999.13;5136532;27;20196;-63
2023/08/28 08:08:39;;;;;;;41.42;39.22;;;;;;;-141.02;57.51;42993.34;5136179;27;20210;-65
2023/08/28 08:11:06;;;;;;;19.42;18.42;;;;;;;-141.02;57.37;43008.72;5136009;27;20204;-64
2023/08/28 08:13:33;;;;;;;19.40;18.40;;;;;;;-141.02;57.26;43016.41;5136516;27;20191;-64
2023/08/28 08:16:02;;;;;;;19.17;18.20;;;;;;;-141.02;56.62;43047.13;5135930;27;20192;-65
2023/08/28 08:18:29;;;;;;;19.02;18.10;;;;;;;-141.02;56.06;43054.78;5135954;27;20203;-65
2023/08/28 08:20:56;;;;;;;19.75;18.75;;;;;;;-141.02;55.28;43075.91;5136270;27;20222;-64
2023/08/28 08:23:23;;;;;;;20.13;19.13;;;;;;;-141.02;55.08;43081.66;5135883;27;20278;-62
2023/08/28 08:25:49;;;;;;;19.85;18.85;;;;;;;-141.02;54.82;43097.03;5135839;27;20714;-65
2023/08/28 08:28:16;;;;;;;18.50;17.60;;;;;;;-141.02;54.92;43129.66;5136103;27;20203;-62
2023/08/28 08:30:43;;;;;;;18.38;17.48;;;;;;;-141.02;54.88;43148.88;5135767;27;20193;-63
2023/08/28 08:33:11;;;;;;;18.20;17.30;;;;;;;-141.02;54.56;43127.75;5136006;27;20224;-62
2023/08/28 08:35:39;;;;;;;18.25;17.35;;;;;;;-141.02;54.56;43127.75;5135648;27;20197;-57
2023/08/28 08:38:06;;;;;;;18.83;17.92;;;;;;;-141.02;54.12;43150.78;5135537;27;20731;-59
2023/08/28 08:40:36;;;;;;;37.78;35.78;;;;;;;-141.02;54.16;43177.66;5135597;27;20218;-65
2023/08/28 08:43:03;;;;;;;35.03;33.22;;;;;;;-141.02;55.05;43162.31;5135804;27;20247;-64
2023/08/28 08:45:30;;;;;;;34.97;33.17;;;;;;;-141.02;54.67;43189.19;5135447;27;20192;-58
2023/08/28 08:48:00;;;;;;;34.05;32.35;;;;;;;-141.02;53.46;43223.75;5135435;27;20196;-63
2023/08/28 08:50:31;;;;;;;34.97;33.17;;;;;;;-141.02;52.88;43248.72;5135272;27;20693;-57
2023/08/28 08:53:06;;;;;;;34.05;32.25;;;;;;;-141.02;51.57;43256.38;5135419;27;20189;-65
2023/08/28 08:55:40;;;;;;;33.42;31.65;;;;;;;-141.02;52.13;43296.72;5134916;27;20227;-66
2023/08/28 08:58:11;;;;;;;34.95;33.05;;;;;;;-141.02;51.06;43296.72;5135468;27;20216;-57
2023/08/28 09:00:43;;;;;;;32.55;30.85;;;;;;;-141.02;50.85;43346.63;5135457;27;20185;-57
2023/08/28 09:03:10;;;;;;;29.55;28.05;;;;;;;-141.02;51.14;43308.22;5135234;27;20245;-59
2023/08/28 09:05:40;;;;;;;27.10;25.70;;;;;;;-141.02;50.86;43325.50;5135390;27;20291;-59
2023/08/28 09:08:08;;;;;;;18.83;17.83;;;;;;;-141.02;50.01;43323.59;5135382;27;20284;-62
2023/08/28 09:10:35;;;;;;;20.00;19.00;;;;;;;-141.02;50.78;43337.03;5134965;27;20210;-62
2023/08/28 09:13:04;;;;;;;18.75;17.75;;;;;;;-141.02;50.09;43411.91;5134860;27;20224;-56
2023/08/28 09:15:31;;;;;;;18.77;17.77;;;;;;;-141.02;49.74;43377.34;5134957;27;20189;-64
2023/08/28 09:18:01;;;;;;;18.88;17.88;;;;;;;-141.02;49.25;43342.78;5134784;27;20224;-65
2023/08/28 09:20:29;;;;;;;18.48;17.48;;;;;;;-141.02;49.37;43415.75;5134774;27;20279;-64
2023/08/28 09:22:57;;;;;;;18.60;17.60;;;;;;;-141.02;47.74;43365.81;5134995;27;20192;-57
2023/08/28 09:25:26;;;;;;;18.50;17.50;;;;;;;-141.02;47.47;43398.47;5134962;27;20192;-57
2023/08/28 09:27:55;;;;;;;24.75;23.45;;;;;;;-141.02;47.77;43473.34;5134890;27;20280;-57
2023/08/28 09:30:30;;;;;;;18.60;17.60;;;;;;;-141.02;47.55;43446.47;5134481;27;20208;-64
2023/08/28 09:32:59;;;;;;;18.85;17.85;;;;;;;-141.02;47.60;43360.06;5134844;27;20271;-64
2023/08/28 09:35:27;;;;;;;18.67;17.67;;;;;;;-141.02;48.14;43408.06;5134509;27;20200;-57
2023/08/28 09:37:59;;;;;;;18.58;17.58;;;;;;;-141.02;48.35;43421.50;5134349;27;20689;-56
2023/08/28 09:40:28;;;;;;;18.80;17.80;;;;;;;-141.02;47.77;43434.94;5134695;27;20197;-57
2023/08/28 09:42:56;;;;;;;18.52;17.52;;;;;;;-141.02;47.10;43494.47;5134670;27;20253;-59
2023/08/28 09:45:23;;;;;;;18.55;17.55;;;;;;;-141.02;47.54;43458.00;5135434;27;20331;-63
2023/08/28 09:47:53;;;;;;;18.77;17.77;;;;;;;-141.02;46.73;43440.72;5134599;27;20281;-65
2023/08/28 09:50:24;;;;;;;19.23;18.33;;;;;;;-141.02;47.34;43500.25;5134197;27;20189;-58
2023/08/28 09:52:51;;;;;;;18.80;17.90;;;;;;;-141.02;45.94;43554.00;5134205;27;20195;-65
2023/08/28 09:55:20;;;;;;;19.00;18.10;;;;;;;-141.02;46.51;43603.94;5134125;27;20199;-56
2023/08/28 09:57:47;;;;;;;18.48;17.58;;;;;;;-141.02;45.91;43596.25;5134355;27;20395;-57
2023/08/28 10:00:14;;;;;;;18.92;18.02;;;;;;;-141.02;45.57;43626.97;5134004;27;20188;-56
2023/08/28 10:02:42;;;;;;;18.85;17.95;;;;;;;-141.02;45.63;43636.56;5134014;27;20192;-64
2023/08/28 10:05:10;;;;;;;18.95;18.05;;;;;;;-141.02;44.77;43603.94;5133919;27;20200;-65
2023/08/28 10:07:39;;;;;;;19.52;18.63;;;;;;;-141.02;44.23;43596.25;5133385;27;20200;-58
2023/08/28 10:10:11;;;;;;;19.33;18.42;;;;;;;-141.02;45.09;43611.59;5134061;27;20228;-63
2023/08/28 10:12:41;;;;;;;21.85;20.75;;;;;;;-141.02;45.24;43655.78;5133677;27;20277;-62
2023/08/28 10:15:11;;;;;;;19.60;18.70;;;;;;;-141.02;45.65;43605.84;5133717;27;20203;-66
2023/08/28 10:17:40;;;;;;;19.52;18.63;;;;;;;-141.02;45.52;43650.00;5133911;27;20234;-57
2023/08/28 10:20:10;;;;;;;20.23;19.23;;;;;;;-141.02;45.53;43634.66;5133592;27;20224;-62
2023/08/28 10:22:38;;;;;;;20.02;19.02;;;;;;;-141.02;44.67;43688.41;5133908;27;20237;-66
2023/08/28 10:25:06;;;;;;;23.75;22.55;;;;;;;-141.02;44.21;43676.91;5133532;27;20245;-65
2023/08/28 10:27:34;;;;;;;19.88;18.95;;;;;;;-141.02;43.52;43724.91;5133855;27;20192;-62
2023/08/28 10:30:05;;;;;;;20.52;19.52;;;;;;;-141.02;42.81;43684.56;5133792;27;20192;-65
2023/08/28 10:32:33;;;;;;;20.33;19.33;;;;;;;-141.02;43.95;43696.09;5133591;27;20705;-61
2023/08/28 10:35:00;;;;;;;19.95;18.98;;;;;;;-141.02;43.23;43717.22;5133716;27;20268;-65
2023/08/28 10:37:29;;;;;;;19.98;18.98;;;;;;;-141.02;43.72;43719.13;5133235;27;20220;-61
2023/08/28 10:39:57;;;;;;;20.17;19.17;;;;;;;-141.02;43.35;43838.19;5133690;27;20246;-64
2023/08/28 10:42:26;;;;;;;26.75;25.35;;;;;;;-141.02;44.10;43719.13;5133574;27;20203;-61
2023/08/28 10:44:53;;;;;;;19.85;18.88;;;;;;;-141.02;43.31;43722.97;5133277;27;20196;-64
2023/08/28 10:47:22;;;;;;;19.48;18.58;;;;;;;-141.02;42.93;43799.78;5133407;27;20602;-66
2023/08/28 10:49:49;;;;;;;19.80;18.88;;;;;;;-141.02;42.50;43772.91;5133602;27;20282;-61
2023/08/28 10:52:19;;;;;;;19.98;18.98;;;;;;;-141.02;42.43;43770.97;5133121;27;20195;-66
2023/08/28 10:54:47;;;;;;;19.92;18.92;;;;;;;-141.02;41.57;43774.81;5133492;27;20600;-66
2023/08/28 10:57:23;;;;;;;19.35;18.45;;;;;;;-141.02;42.13;43803.63;5133026;27;20732;-66
2023/08/28 10:59:50;;;;;;;21.63;20.52;;;;;;;-141.02;41.94;43815.16;5133204;27;20187;-66
2023/08/28 11:02:17;;;;;;;19.90;19.00;;;;;;;-141.02;41.63;43874.69;5132971;27;20195;-57
2023/08/28 11:04:46;;;;;;;18.27;17.48;;;;;;;-141.02;40.93;43888.13;5133774;27;20223;-66
2023/08/28 11:07:43;;;;;;;18.13;17.15;;;;;;;-141.02;40.79;43972.63;5133286;27;20202;-66
2023/08/28 11:10:19;;;;;;;18.17;17.17;;;;;;;-141.02;41.15;44089.75;5116100;28;20203;-65
2023/08/28 11:12:56;;;;;;;21.67;20.48;;;;;;;-141.02;40.73;44176.19;5132820;27;20363;-65
2023/08/28 11:15:27;;;;;;;18.02;17.08;;;;;;;-141.02;40.84;44139.69;5132943;28;20192;-57
2023/08/28 11:18:27;;;;;;;17.98;17.08;;;;;;;-141.02;41.33;44272.22;5133455;27;20219;-66